Time;durP1;ratioP1;P1;durP2;ratioP2;P2;SDS_P1;SDS_P2;PMS_P1;PMS_P2;Temp;Humidity;BMP_temperature;BMP_pressure;BME280_temperature;BME280_humidity;BME280_pressure;Samples;Min_cycle;Max_cycle;Signal;HPM_P1;HPM_P2
2023/12/03 00:00:39;;;;;;;34.88;16.45;;;;;;;-144.57;100.00;62443.72;5013470;28;20528;-60
2023/12/03 00:03:06;;;;;;;34.70;16.45;;;;;;;-144.57;100.00;62443.72;5014059;28;20033;-60
2023/12/03 00:05:32;;;;;;;35.63;16.52;;;;;;;-144.57;100.00;62443.72;5012156;28;20046;-60
2023/12/03 00:07:58;;;;;;;31.85;14.93;;;;;;;-144.57;100.00;62443.72;5012219;28;20034;-61
2023/12/03 00:10:23;;;;;;;35.25;16.63;;;;;;;-144.57;100.00;62443.72;5013004;28;20050;-60
2023/12/03 00:12:49;;;;;;;31.08;15.57;;;;;;;-144.57;100.00;62443.72;5028338;28;20129;-61
2023/12/03 00:15:15;;;;;;;32.15;16.27;;;;;;;-144.57;100.00;62443.72;5012414;28;20042;-61
2023/12/03 00:17:40;;;;;;;32.85;16.67;;;;;;;-144.57;100.00;62443.72;5013218;28;20046;-63
2023/12/03 00:20:07;;;;;;;34.95;17.45;;;;;;;-144.57;100.00;62443.72;5008517;28;20077;-63
2023/12/03 00:22:32;;;;;;;36.35;18.20;;;;;;;-144.57;100.00;62443.72;5025806;28;20073;-60
2023/12/03 00:24:58;;;;;;;34.17;16.65;;;;;;;-144.57;100.00;62443.72;5013290;28;20666;-62
2023/12/03 00:27:24;;;;;;;32.72;15.73;;;;;;;-144.57;100.00;62443.72;5013000;28;20041;-61
2023/12/03 00:29:49;;;;;;;36.30;16.00;;;;;;;-144.57;100.00;62443.72;5012342;28;20053;-62
2023/12/03 00:32:15;;;;;;;31.75;15.77;;;;;;;-144.57;100.00;62443.72;5011495;28;20136;-59
2023/12/03 00:34:41;;;;;;;33.55;15.82;;;;;;;-144.57;100.00;62443.72;5011394;28;20574;-62
2023/12/03 00:37:06;;;;;;;34.42;16.70;;;;;;;-144.57;100.00;62443.72;5012531;28;20067;-61
2023/12/03 00:39:32;;;;;;;33.17;16.02;;;;;;;-144.57;100.00;62443.72;5012058;28;20049;-62
2023/12/03 00:41:58;;;;;;;34.83;17.35;;;;;;;-144.57;100.00;62443.72;5012226;28;20037;-60
2023/12/03 00:44:23;;;;;;;30.42;15.00;;;;;;;-144.57;100.00;62443.72;5012618;28;20092;-61
2023/12/03 00:46:49;;;;;;;33.72;15.20;;;;;;;-144.57;100.00;62443.72;5012521;28;20045;-61
2023/12/03 00:49:15;;;;;;;34.90;15.80;;;;;;;-144.57;100.00;62443.72;5027713;28;20050;-59
2023/12/03 00:51:40;;;;;;;29.15;16.35;;;;;;;-144.57;100.00;62443.72;5012702;28;20042;-59
2023/12/03 00:54:07;;;;;;;35.42;15.48;;;;;;;-144.57;100.00;62443.72;5027799;28;20080;-61
2023/12/03 00:56:32;;;;;;;30.02;14.48;;;;;;;-144.57;100.00;62443.72;5012530;28;20054;-62
2023/12/03 00:58:58;;;;;;;33.50;16.33;;;;;;;-144.57;100.00;62443.72;5011371;28;20108;-61
2023/12/03 01:01:24;;;;;;;31.85;15.95;;;;;;;-144.57;100.00;62443.72;5012514;28;20042;-62
2023/12/03 01:03:49;;;;;;;27.48;14.98;;;;;;;-144.57;100.00;62443.72;5011198;28;20524;-61
2023/12/03 01:06:15;;;;;;;30.13;15.82;;;;;;;-144.57;100.00;62443.72;5012230;28;20046;-62
2023/12/03 01:08:40;;;;;;;34.25;16.67;;;;;;;-144.57;100.00;62443.72;5012702;28;20041;-60
2023/12/03 01:11:06;;;;;;;31.85;15.93;;;;;;;-144.57;100.00;62443.72;5011665;28;20042;-62
2023/12/03 01:13:32;;;;;;;34.78;17.25;;;;;;;-144.57;100.00;62443.72;5009618;28;20045;-61
2023/12/03 01:15:59;;;;;;;31.23;15.93;;;;;;;-144.57;100.00;62443.72;5011931;28;20050;-61
2023/12/03 01:18:24;;;;;;;33.70;17.05;;;;;;;-144.57;100.00;62443.72;5010891;28;20121;-61
2023/12/03 01:20:50;;;;;;;33.42;16.50;;;;;;;-144.57;100.00;62443.72;5010789;28;20189;-60
2023/12/03 01:23:16;;;;;;;25.95;14.57;;;;;;;-144.57;100.00;62443.72;5010852;28;20492;-60
2023/12/03 01:25:41;;;;;;;32.45;15.77;;;;;;;-144.57;100.00;62443.72;5010159;28;20037;-61
2023/12/03 01:28:07;;;;;;;31.85;15.82;;;;;;;-144.57;100.00;62443.72;5012009;28;20050;-60
2023/12/03 01:30:32;;;;;;;29.73;15.75;;;;;;;-144.57;100.00;62443.72;5027400;28;20527;-62
2023/12/03 01:32:58;;;;;;;31.85;16.40;;;;;;;-144.57;100.00;62443.72;5005426;28;20500;-59
2023/12/03 01:35:24;;;;;;;31.30;15.35;;;;;;;-144.57;100.00;62443.72;5010640;28;20120;-62
2023/12/03 01:37:49;;;;;;;31.67;15.80;;;;;;;-144.57;100.00;62443.72;5011908;28;20045;-61
2023/12/03 01:40:15;;;;;;;28.30;15.52;;;;;;;-144.57;100.00;62443.72;5012516;28;20064;-60
2023/12/03 01:42:41;;;;;;;30.42;15.40;;;;;;;-144.57;100.00;62443.72;5013086;28;20041;-61
2023/12/03 01:45:07;;;;;;;29.45;15.02;;;;;;;-144.57;100.00;62443.72;5013364;28;20116;-62
2023/12/03 01:47:33;;;;;;;26.83;13.40;;;;;;;-144.57;100.00;62443.72;5013199;28;20052;-61
2023/12/03 01:50:05;;;;;;;30.40;13.23;;;;;;;-144.57;100.00;62443.72;5011822;28;20052;-61
2023/12/03 01:52:31;;;;;;;25.13;13.00;;;;;;;-144.57;100.00;62443.72;5012452;28;20053;-61
2023/12/03 01:54:57;;;;;;;24.95;13.18;;;;;;;-144.57;100.00;62443.72;5012438;28;20053;-61
2023/12/03 01:57:23;;;;;;;23.50;13.25;;;;;;;-144.57;100.00;62443.72;4995641;28;20042;-60
2023/12/03 01:59:48;;;;;;;25.77;13.15;;;;;;;-144.57;100.00;62443.72;4992710;28;20046;-61
2023/12/03 02:02:14;;;;;;;28.33;13.35;;;;;;;-144.57;100.00;62443.72;5011964;28;20064;-59
2023/12/03 02:04:40;;;;;;;26.35;12.52;;;;;;;-144.57;100.00;62443.72;4975877;28;20046;-62
2023/12/03 02:07:06;;;;;;;26.63;13.50;;;;;;;-144.57;100.00;62443.72;4991899;28;20041;-61
2023/12/03 02:09:32;;;;;;;24.80;12.85;;;;;;;-144.57;100.00;62443.72;4991936;28;20049;-60
2023/12/03 02:11:57;;;;;;;26.05;12.57;;;;;;;-144.57;100.00;62443.72;4991830;28;20042;-60
2023/12/03 02:14:24;;;;;;;24.85;12.52;;;;;;;-144.57;100.00;62443.72;4990570;28;20435;-61
2023/12/03 02:16:49;;;;;;;26.65;12.93;;;;;;;-144.57;100.00;62443.72;4991707;28;20518;-61
2023/12/03 02:19:15;;;;;;;25.15;13.10;;;;;;;-144.57;100.00;62443.72;4997121;28;20050;-59
2023/12/03 02:21:41;;;;;;;27.10;13.02;;;;;;;-144.57;100.00;62443.72;5011081;28;20050;-58
2023/12/03 02:24:08;;;;;;;27.08;14.07;;;;;;;-144.57;100.00;62443.72;5013803;28;20137;-61
2023/12/03 02:26:34;;;;;;;28.27;14.20;;;;;;;-144.57;100.00;62443.72;5015412;28;20129;-61
2023/12/03 02:28:59;;;;;;;27.65;14.00;;;;;;;-144.57;100.00;62443.72;5014310;28;20042;-61
2023/12/03 02:31:27;;;;;;;29.75;14.60;;;;;;;-144.57;100.00;62443.72;5014769;28;20042;-62
2023/12/03 02:34:12;;;;;;;29.83;14.73;;;;;;;-144.57;100.00;62443.72;5015490;28;20053;-60
2023/12/03 02:36:38;;;;;;;31.70;14.68;;;;;;;-144.57;100.00;62443.72;5013931;28;20132;-60
2023/12/03 02:39:05;;;;;;;28.48;14.50;;;;;;;-144.57;100.00;62443.72;5013827;28;20128;-60
2023/12/03 02:41:31;;;;;;;29.95;14.15;;;;;;;-144.57;100.00;62443.72;5014891;28;20053;-62
2023/12/03 02:43:56;;;;;;;27.77;13.10;;;;;;;-144.57;100.00;62443.72;5013804;28;20041;-60
2023/12/03 02:46:22;;;;;;;25.15;13.43;;;;;;;-144.57;100.00;62443.72;5015119;28;20046;-62
2023/12/03 02:48:48;;;;;;;27.55;13.07;;;;;;;-144.57;100.00;62443.72;5015388;28;20125;-61
2023/12/03 02:51:14;;;;;;;27.85;15.18;;;;;;;-144.57;100.00;62443.72;5013732;28;20096;-61
2023/12/03 02:53:40;;;;;;;30.58;14.70;;;;;;;-144.57;100.00;62443.72;5013658;28;20049;-61
2023/12/03 02:56:06;;;;;;;28.33;14.65;;;;;;;-144.57;100.00;62443.72;5014975;28;20046;-61
2023/12/03 02:58:33;;;;;;;27.25;14.07;;;;;;;-144.57;100.00;62443.72;5014582;28;20046;-60
2023/12/03 03:00:58;;;;;;;24.05;13.57;;;;;;;-144.57;100.00;62443.72;5014773;28;20058;-62
2023/12/03 03:03:24;;;;;;;24.77;13.48;;;;;;;-144.57;100.00;62443.72;5014934;28;20530;-60
2023/12/03 03:05:50;;;;;;;24.80;12.93;;;;;;;-144.57;100.00;62443.72;5014975;28;20077;-63
2023/12/03 03:08:15;;;;;;;23.15;13.15;;;;;;;-144.57;100.00;62443.72;5013420;28;20080;-60
2023/12/03 03:10:41;;;;;;;23.05;12.38;;;;;;;-144.57;100.00;62443.72;5014531;28;20049;-62
2023/12/03 03:13:08;;;;;;;25.83;12.77;;;;;;;-144.57;100.00;62443.72;5014679;28;20048;-60
2023/12/03 03:15:34;;;;;;;24.25;11.45;;;;;;;-144.57;100.00;62443.72;5014663;28;20042;-61
2023/12/03 03:18:00;;;;;;;27.75;13.10;;;;;;;-144.57;100.00;62443.72;5029743;28;20443;-61
2023/12/03 03:20:27;;;;;;;23.45;12.40;;;;;;;-144.57;100.00;62443.72;5014307;28;20189;-61
2023/12/03 03:22:53;;;;;;;25.60;13.80;;;;;;;-144.57;100.00;62443.72;5014426;28;20143;-60
2023/12/03 03:25:18;;;;;;;30.42;15.27;;;;;;;-144.57;100.00;62443.72;5014071;28;20111;-61
2023/12/03 03:27:44;;;;;;;30.55;15.88;;;;;;;-144.57;100.00;62443.72;5014410;28;20096;-60
2023/12/03 03:30:10;;;;;;;27.15;14.93;;;;;;;-144.57;100.00;62443.72;5014055;28;20049;-61
2023/12/03 03:32:36;;;;;;;34.75;15.80;;;;;;;-144.57;100.00;62443.72;5012654;28;20041;-61
2023/12/03 03:35:05;;;;;;;32.50;16.88;;;;;;;-144.57;100.00;62443.72;5013690;28;20381;-61
2023/12/03 03:37:31;;;;;;;34.83;16.00;;;;;;;-144.57;100.00;62443.72;5012643;28;20049;-60
2023/12/03 03:39:56;;;;;;;31.05;16.65;;;;;;;-144.57;100.00;62443.72;5012690;28;20054;-61
2023/12/03 03:42:22;;;;;;;41.53;19.50;;;;;;;-144.57;100.00;62443.72;5014066;28;20042;-60
2023/12/03 03:44:48;;;;;;;39.13;18.63;;;;;;;-144.57;100.00;62443.72;5013777;28;20467;-64
2023/12/03 03:47:14;;;;;;;36.85;18.38;;;;;;;-144.57;100.00;62443.72;5013919;28;20057;-60
2023/12/03 03:49:40;;;;;;;34.83;17.15;;;;;;;-144.57;100.00;62443.72;5029640;28;20104;-62
2023/12/03 03:52:06;;;;;;;35.95;17.45;;;;;;;-144.57;100.00;62443.72;5015837;28;20125;-60
2023/12/03 03:54:32;;;;;;;36.97;18.08;;;;;;;-144.57;100.00;62443.72;5030002;28;20494;-62
2023/12/03 03:56:58;;;;;;;34.13;16.88;;;;;;;-144.57;100.00;62443.72;5014093;28;20050;-61
2023/12/03 03:59:24;;;;;;;31.58;16.38;;;;;;;-144.57;100.00;62443.72;5015249;28;20136;-61
2023/12/03 04:01:50;;;;;;;32.40;16.52;;;;;;;-144.57;100.00;62443.72;5015554;28;20072;-60
2023/12/03 04:04:16;;;;;;;30.83;15.45;;;;;;;-144.57;100.00;62443.72;5014790;28;20053;-61
2023/12/03 04:06:44;;;;;;;30.55;15.32;;;;;;;-144.57;100.00;62443.72;5015011;28;20045;-61
2023/12/03 04:09:11;;;;;;;34.58;16.90;;;;;;;-144.57;100.00;62443.72;5015398;28;20045;-61
2023/12/03 04:11:41;;;;;;;32.70;15.63;;;;;;;-144.57;100.00;62443.72;5015262;28;20140;-61
2023/12/03 04:14:08;;;;;;;32.28;15.23;;;;;;;-144.57;100.00;62443.72;5015113;28;20078;-61
2023/12/03 04:16:37;;;;;;;35.47;17.08;;;;;;;-144.57;100.00;62443.72;5013747;28;20427;-62
2023/12/03 04:19:02;;;;;;;35.60;17.75;;;;;;;-144.57;100.00;62443.72;5015232;28;20134;-60
2023/12/03 04:21:29;;;;;;;31.35;16.52;;;;;;;-144.57;100.00;62443.72;5015239;28;20100;-60
2023/12/03 04:23:56;;;;;;;32.53;14.82;;;;;;;-144.57;100.00;62443.72;5028776;28;20048;-60
2023/12/03 04:26:22;;;;;;;27.30;15.85;;;;;;;-144.57;100.00;62443.72;5013326;28;20052;-62
2023/12/03 04:28:48;;;;;;;31.55;16.23;;;;;;;-144.57;100.00;62443.72;5013798;28;20050;-60
2023/12/03 04:31:19;;;;;;;36.53;16.67;;;;;;;-144.57;100.00;62443.72;5002246;28;20043;-62
2023/12/03 04:33:45;;;;;;;34.13;16.52;;;;;;;-144.57;100.00;62443.72;4993825;28;20053;-59
2023/12/03 04:36:12;;;;;;;29.58;14.23;;;;;;;-144.57;100.00;62443.72;4993322;28;20046;-61
2023/12/03 04:38:38;;;;;;;31.00;14.73;;;;;;;-144.57;100.00;62443.72;4993594;28;20038;-61
2023/12/03 04:41:04;;;;;;;32.90;15.52;;;;;;;-144.57;100.00;62443.72;4993266;28;20134;-62
2023/12/03 04:43:29;;;;;;;33.05;16.13;;;;;;;-144.57;100.00;62443.72;4993331;28;20046;-61
2023/12/03 04:45:55;;;;;;;29.35;15.93;;;;;;;-144.57;100.00;62443.72;4992381;28;20401;-61
2023/12/03 04:48:21;;;;;;;31.55;15.35;;;;;;;-144.57;100.00;62443.72;4993615;28;20498;-59
2023/12/03 04:50:48;;;;;;;28.80;13.77;;;;;;;-144.57;100.00;62443.72;4993195;28;20046;-61
2023/12/03 04:53:13;;;;;;;33.85;16.65;;;;;;;-144.57;100.00;62443.72;4993180;28;20052;-60
2023/12/03 04:55:39;;;;;;;31.70;15.60;;;;;;;-144.57;100.00;62443.72;4991605;28;20057;-62
2023/12/03 04:58:05;;;;;;;34.40;16.65;;;;;;;-144.57;100.00;62443.72;4991625;28;20097;-60
2023/12/03 05:00:30;;;;;;;29.00;15.10;;;;;;;-144.57;100.00;62443.72;4991608;28;20038;-63
2023/12/03 05:02:56;;;;;;;30.83;16.17;;;;;;;-144.57;100.00;62443.72;4992951;28;20057;-60
2023/12/03 05:05:22;;;;;;;32.42;15.70;;;;;;;-144.57;100.00;62443.72;4991558;28;20050;-61
2023/12/03 05:07:47;;;;;;;29.48;15.45;;;;;;;-144.57;100.00;62443.72;4992972;28;20042;-60
2023/12/03 05:10:13;;;;;;;33.63;16.88;;;;;;;-144.57;100.00;62443.72;4993052;28;20046;-61
2023/12/03 05:12:38;;;;;;;34.13;16.88;;;;;;;-144.57;100.00;62443.72;4991441;28;20038;-63
2023/12/03 05:15:04;;;;;;;35.03;16.67;;;;;;;-144.57;100.00;62443.72;4975265;28;20054;-62
2023/12/03 05:17:30;;;;;;;36.17;16.35;;;;;;;-144.57;100.00;62443.72;4992669;28;20133;-60
2023/12/03 05:19:56;;;;;;;32.13;16.73;;;;;;;-144.57;100.00;62443.72;5003179;28;20132;-63
2023/12/03 05:22:21;;;;;;;33.50;16.98;;;;;;;-144.57;100.00;62443.72;5011971;28;20054;-60
2023/12/03 05:24:48;;;;;;;36.58;18.17;;;;;;;-144.57;100.00;62443.72;5027182;28;20046;-62
2023/12/03 05:27:14;;;;;;;38.28;18.48;;;;;;;-144.57;100.00;62443.72;5010723;28;20046;-60
2023/12/03 05:29:43;;;;;;;41.33;18.73;;;;;;;-144.57;100.00;62443.72;5012353;28;20200;-63
2023/12/03 05:32:09;;;;;;;45.93;18.90;;;;;;;-144.57;100.00;62443.72;5012096;28;20492;-61
2023/12/03 05:34:35;;;;;;;42.95;19.95;;;;;;;-144.57;100.00;62443.72;5011228;28;20543;-62
2023/12/03 05:37:01;;;;;;;37.45;18.80;;;;;;;-144.57;100.00;62443.72;4994354;28;20121;-61
2023/12/03 05:39:27;;;;;;;33.72;17.90;;;;;;;-144.57;100.00;62443.72;5011740;28;20132;-60
2023/12/03 05:41:52;;;;;;;38.90;19.10;;;;;;;-144.57;100.00;62443.72;4994389;28;20427;-62
2023/12/03 05:44:18;;;;;;;34.25;16.25;;;;;;;-144.57;100.00;62443.72;5011593;28;20527;-61
2023/12/03 05:46:44;;;;;;;36.92;17.60;;;;;;;-144.57;100.00;62443.72;5011062;28;20045;-62
2023/12/03 05:49:10;;;;;;;37.40;16.75;;;;;;;-144.57;100.00;62443.72;5009996;28;20055;-61
2023/12/03 05:51:35;;;;;;;39.55;18.30;;;;;;;-144.57;100.00;62443.72;5010520;28;20044;-60
2023/12/03 05:54:01;;;;;;;40.80;18.52;;;;;;;-144.57;100.00;62443.72;5011992;28;20103;-59
2023/12/03 05:56:27;;;;;;;32.97;17.98;;;;;;;-144.57;100.00;62443.72;5011411;28;20077;-63
2023/12/03 05:58:53;;;;;;;38.15;17.48;;;;;;;-144.57;100.00;62443.72;5009610;28;20046;-61
2023/12/03 06:01:23;;;;;;;34.72;17.20;;;;;;;-144.57;100.00;62443.72;5010183;28;20124;-63
2023/12/03 06:03:49;;;;;;;36.40;17.10;;;;;;;-144.57;100.00;62443.72;5011109;28;20463;-61
2023/12/03 06:06:16;;;;;;;40.28;17.00;;;;;;;-144.57;100.00;62443.72;5011010;28;20049;-61
2023/12/03 06:08:41;;;;;;;34.85;16.52;;;;;;;-144.57;100.00;62443.72;5011797;28;20073;-60
2023/12/03 06:11:07;;;;;;;37.30;17.42;;;;;;;-144.57;100.00;62443.72;5010512;28;20573;-62
2023/12/03 06:13:33;;;;;;;37.03;17.77;;;;;;;-144.57;100.00;62443.72;5010191;28;20079;-59
2023/12/03 06:15:58;;;;;;;30.52;14.85;;;;;;;-144.57;100.00;62443.72;5010285;28;20045;-63
2023/12/03 06:18:24;;;;;;;36.92;18.75;;;;;;;-144.57;100.00;62443.72;5011455;28;20108;-62
2023/12/03 06:20:50;;;;;;;35.33;16.10;;;;;;;-144.57;100.00;62443.72;5009039;28;20432;-62
2023/12/03 06:23:19;;;;;;;35.78;15.85;;;;;;;-144.57;100.00;62443.72;4993592;28;20049;-63
2023/12/03 06:25:48;;;;;;;39.97;17.00;;;;;;;-144.57;100.00;62443.72;4961559;28;20428;-62
2023/12/03 06:28:14;;;;;;;33.75;17.70;;;;;;;-144.57;100.00;62443.72;5010945;28;20052;-61
2023/12/03 06:30:40;;;;;;;35.70;17.98;;;;;;;-144.57;100.00;62443.72;5009489;28;20041;-63
2023/12/03 06:33:05;;;;;;;31.77;16.88;;;;;;;-144.57;100.00;62443.72;5006534;28;20053;-63
2023/12/03 06:35:31;;;;;;;35.17;17.80;;;;;;;-144.57;100.00;62443.72;4993352;28;20405;-62
2023/12/03 06:37:57;;;;;;;29.75;15.60;;;;;;;-144.57;100.00;62443.72;5009854;28;20484;-60
2023/12/03 06:40:23;;;;;;;39.97;18.20;;;;;;;-144.57;100.00;62443.72;5010986;28;20172;-61
2023/12/03 06:42:48;;;;;;;37.85;17.10;;;;;;;-144.57;100.00;62443.72;5011109;28;20463;-60
2023/12/03 06:45:15;;;;;;;33.58;18.45;;;;;;;-144.57;100.00;62443.72;5009647;28;20045;-62
2023/12/03 06:47:40;;;;;;;42.03;16.90;;;;;;;-144.57;100.00;62443.72;5010783;28;20463;-62
2023/12/03 06:50:07;;;;;;;34.83;17.15;;;;;;;-144.57;100.00;62443.72;5007467;28;20155;-63
2023/12/03 06:52:32;;;;;;;37.85;17.10;;;;;;;-144.57;100.00;62443.72;5008898;28;20037;-62
2023/12/03 06:54:58;;;;;;;36.53;16.83;;;;;;;-144.57;100.00;62443.72;5010865;28;20053;-63
2023/12/03 06:57:24;;;;;;;35.97;15.88;;;;;;;-144.57;100.00;62443.72;5009166;28;20038;-62
2023/12/03 06:59:49;;;;;;;36.88;16.38;;;;;;;-144.57;100.00;62443.72;5010682;28;20040;-61
2023/12/03 07:02:15;;;;;;;40.42;17.58;;;;;;;-144.57;100.00;62443.72;5010603;28;20092;-62
2023/12/03 07:04:40;;;;;;;33.45;16.25;;;;;;;-144.57;100.00;62443.72;5010289;28;20579;-63
2023/12/03 07:07:06;;;;;;;35.28;16.30;;;;;;;-144.57;100.00;62443.72;5008925;28;20407;-64
2023/12/03 07:09:32;;;;;;;32.72;15.75;;;;;;;-144.57;100.00;62443.72;5009844;28;20050;-63
2023/12/03 07:11:58;;;;;;;31.05;14.63;;;;;;;-144.57;100.00;62443.72;5012917;28;20049;-62
2023/12/03 07:14:24;;;;;;;37.53;17.35;;;;;;;-144.57;100.00;62443.72;5013703;28;20041;-62
2023/12/03 07:16:50;;;;;;;32.20;15.57;;;;;;;-144.57;100.00;62443.72;5013888;28;20038;-61
2023/12/03 07:19:16;;;;;;;27.65;14.77;;;;;;;-144.57;100.00;62443.72;5013406;28;20053;-63
2023/12/03 07:21:42;;;;;;;28.10;14.75;;;;;;;-144.57;100.00;62443.72;5012618;28;20065;-62
2023/12/03 07:24:07;;;;;;;28.42;15.25;;;;;;;-144.57;100.00;62443.72;5012546;28;20046;-62
2023/12/03 07:26:33;;;;;;;29.58;15.25;;;;;;;-144.57;100.00;62443.72;5013404;28;20530;-63
2023/12/03 07:28:59;;;;;;;29.67;15.73;;;;;;;-144.57;100.00;62443.72;5013614;28;20054;-62
2023/12/03 07:31:25;;;;;;;29.38;15.65;;;;;;;-144.57;100.00;62443.72;5012419;28;20050;-61
2023/12/03 07:33:51;;;;;;;34.55;16.92;;;;;;;-144.57;100.00;62443.72;5013044;28;20308;-64
2023/12/03 07:36:17;;;;;;;36.03;17.27;;;;;;;-144.57;100.00;62443.72;5013848;28;20044;-65
2023/12/03 07:38:42;;;;;;;29.83;16.00;;;;;;;-144.57;100.00;62443.72;5012578;28;20137;-62
2023/12/03 07:41:10;;;;;;;30.40;15.73;;;;;;;-144.57;100.00;62443.72;5013919;28;20104;-62
2023/12/03 07:43:36;;;;;;;30.52;14.98;;;;;;;-144.57;100.00;62443.72;5011946;28;20046;-62
2023/12/03 07:46:02;;;;;;;31.02;16.27;;;;;;;-144.57;100.00;62443.72;5013454;28;20057;-62
2023/12/03 07:48:27;;;;;;;31.65;16.25;;;;;;;-144.57;100.00;62443.72;5013077;28;20077;-61
2023/12/03 07:50:53;;;;;;;34.05;16.55;;;;;;;-144.57;100.00;62443.72;5027363;28;20069;-63
2023/12/03 07:53:19;;;;;;;32.45;16.17;;;;;;;-144.57;100.00;62443.72;5013558;28;20084;-63
2023/12/03 07:55:45;;;;;;;30.08;15.85;;;;;;;-144.57;100.00;62443.72;5013365;28;20057;-63
2023/12/03 07:58:10;;;;;;;31.38;16.58;;;;;;;-144.57;100.00;62443.72;5012040;28;20038;-64
2023/12/03 08:00:38;;;;;;;31.20;16.23;;;;;;;-144.57;100.00;62443.72;5010672;28;20049;-61
2023/12/03 08:03:04;;;;;;;32.22;16.85;;;;;;;-144.57;100.00;62443.72;5011070;28;20439;-63
2023/12/03 08:05:29;;;;;;;36.13;17.85;;;;;;;-144.57;100.00;62443.72;5012776;28;20037;-64
2023/12/03 08:07:56;;;;;;;40.35;18.73;;;;;;;-144.57;100.00;62443.72;5011922;28;20140;-62
2023/12/03 08:10:22;;;;;;;35.95;18.40;;;;;;;-144.57;100.00;62443.72;5013055;28;20120;-63
2023/12/03 08:12:48;;;;;;;36.70;18.42;;;;;;;-144.57;100.00;62443.72;5012289;28;20597;-62
2023/12/03 08:15:13;;;;;;;39.03;19.73;;;;;;;-144.57;100.00;62443.72;5027606;28;20057;-62
2023/12/03 08:17:39;;;;;;;40.30;21.02;;;;;;;-144.57;100.00;62443.72;5012165;28;20030;-62
2023/12/03 08:20:05;;;;;;;46.15;20.50;;;;;;;-144.57;100.00;62443.72;4994371;28;20052;-61
2023/12/03 08:22:32;;;;;;;34.53;16.38;;;;;;;-144.57;100.00;62443.72;5011980;28;20136;-63
2023/12/03 08:24:57;;;;;;;38.70;20.52;;;;;;;-144.57;100.00;62443.72;5027724;28;20575;-60
2023/12/03 08:27:23;;;;;;;42.22;20.85;;;;;;;-144.57;100.00;62443.72;5010083;28;20124;-61
2023/12/03 08:29:49;;;;;;;39.70;19.85;;;;;;;-144.57;100.00;62443.72;5012374;28;20448;-61
2023/12/03 08:32:14;;;;;;;45.70;21.88;;;;;;;-144.57;100.00;62443.72;5011970;28;20077;-63
2023/12/03 08:34:40;;;;;;;43.20;20.63;;;;;;;-144.57;100.00;62443.72;5012440;28;20088;-63
2023/12/03 08:37:06;;;;;;;50.03;21.48;;;;;;;-144.57;100.00;62443.72;5012468;28;20042;-62
2023/12/03 08:39:32;;;;;;;41.60;19.75;;;;;;;-144.57;100.00;62443.72;5012220;28;20054;-63
2023/12/03 08:41:57;;;;;;;35.42;17.67;;;;;;;-144.57;100.00;62443.72;5011705;28;20041;-63
2023/12/03 08:44:25;;;;;;;31.95;17.15;;;;;;;-144.57;100.00;62443.72;4992255;28;20436;-62
2023/12/03 08:46:51;;;;;;;37.05;19.08;;;;;;;-144.57;100.00;62443.72;4989074;28;20120;-61
2023/12/03 08:49:17;;;;;;;41.75;20.10;;;;;;;-144.57;100.00;62443.72;4989564;28;20089;-62
2023/12/03 08:51:43;;;;;;;42.40;19.55;;;;;;;-144.57;100.00;62443.72;5005809;28;20412;-62
2023/12/03 08:54:09;;;;;;;36.10;19.42;;;;;;;-144.57;100.00;62443.72;4990997;28;20280;-61
2023/12/03 08:56:34;;;;;;;39.20;18.20;;;;;;;-144.57;100.00;62443.72;4987447;28;20034;-64
2023/12/03 08:59:00;;;;;;;34.63;17.38;;;;;;;-144.57;100.00;62443.72;4988577;28;20060;-62
2023/12/03 09:01:26;;;;;;;37.78;17.95;;;;;;;-144.57;100.00;62443.72;4989544;28;20137;-64
2023/12/03 09:03:51;;;;;;;31.40;15.95;;;;;;;-144.57;100.00;62443.72;4992521;28;20038;-64
2023/12/03 09:06:17;;;;;;;41.83;18.85;;;;;;;-144.57;100.00;62443.72;4991311;28;20045;-61
2023/12/03 09:08:43;;;;;;;42.25;20.67;;;;;;;-144.57;100.00;62443.72;4992320;28;20522;-62
2023/12/03 09:11:10;;;;;;;40.45;17.48;;;;;;;-144.57;100.00;62443.72;4990788;28;20441;-64
2023/12/03 09:13:35;;;;;;;38.03;18.35;;;;;;;-144.57;100.00;62443.72;5006940;28;20050;-61
2023/12/03 09:16:01;;;;;;;34.10;16.05;;;;;;;-144.57;100.00;62443.72;4991925;28;20133;-63
2023/12/03 09:18:27;;;;;;;28.33;14.95;;;;;;;-144.57;100.00;62443.72;5006379;28;20404;-65
2023/12/03 09:20:53;;;;;;;32.03;16.65;;;;;;;-144.57;100.00;62443.72;5010315;28;20072;-65
2023/12/03 09:23:18;;;;;;;32.28;17.50;;;;;;;-144.57;100.00;62443.72;5011280;28;20140;-63
2023/12/03 09:25:44;;;;;;;37.80;16.42;;;;;;;-144.57;100.00;62443.72;5010232;28;20056;-64
2023/12/03 09:28:11;;;;;;;38.17;17.95;;;;;;;-144.57;100.00;62443.72;5011627;28;20029;-63
2023/12/03 09:30:37;;;;;;;32.88;15.43;;;;;;;-144.57;100.00;62443.72;5011214;28;20050;-62
2023/12/03 09:33:03;;;;;;;37.65;16.23;;;;;;;-144.57;100.00;62443.72;5010270;28;20132;-61
2023/12/03 09:35:31;;;;;;;32.13;17.88;;;;;;;-144.57;100.00;62443.72;5009595;28;20042;-62
2023/12/03 09:37:56;;;;;;;30.27;14.80;;;;;;;-144.57;100.00;62443.72;5009754;28;20041;-63
2023/12/03 09:40:23;;;;;;;27.77;14.68;;;;;;;-144.57;100.00;62443.72;5009408;28;20046;-64
2023/12/03 09:42:50;;;;;;;30.60;15.05;;;;;;;-144.57;100.00;62443.72;5009678;28;20042;-63
2023/12/03 09:45:19;;;;;;;29.92;15.50;;;;;;;-144.57;100.00;62443.72;5009720;28;20045;-61
2023/12/03 09:47:53;;;;;;;34.80;15.55;;;;;;;-144.57;100.00;62443.72;5009178;28;20034;-64
2023/12/03 09:50:20;;;;;;;29.60;14.50;;;;;;;-144.57;100.00;62443.72;5009515;28;20042;-62
2023/12/03 09:52:51;;;;;;;33.75;15.70;;;;;;;-144.57;100.00;62443.72;5010201;28;20044;-63
2023/12/03 09:55:17;;;;;;;32.05;15.57;;;;;;;-144.57;100.00;62443.72;5010444;28;20053;-63
2023/12/03 09:57:44;;;;;;;32.88;14.73;;;;;;;-144.57;100.00;62443.72;4993314;28;20134;-63
2023/12/03 10:00:11;;;;;;;39.13;18.73;;;;;;;-144.57;100.00;62443.72;5009436;28;20049;-64
2023/12/03 10:02:37;;;;;;;37.58;17.02;;;;;;;-144.57;100.00;62443.72;5007795;28;20688;-63
2023/12/03 10:05:03;;;;;;;36.35;15.98;;;;;;;-144.57;100.00;62443.72;5025791;28;20058;-63
2023/12/03 10:07:29;;;;;;;32.90;17.05;;;;;;;-144.57;100.00;62443.72;5009551;28;20034;-62
2023/12/03 10:09:57;;;;;;;35.42;16.10;;;;;;;-144.57;100.00;62443.72;5026258;28;20049;-61
2023/12/03 10:12:25;;;;;;;33.65;16.52;;;;;;;-144.57;100.00;62443.72;5010655;28;20043;-62
2023/12/03 10:14:51;;;;;;;35.05;17.10;;;;;;;-144.57;100.00;62443.72;5009671;28;20045;-63
2023/12/03 10:17:20;;;;;;;37.15;16.23;;;;;;;-144.57;100.00;62443.72;5005312;28;20046;-61
2023/12/03 10:19:46;;;;;;;30.67;16.02;;;;;;;-144.57;100.00;62443.72;4973702;28;20508;-63
2023/12/03 10:22:12;;;;;;;24.98;12.13;;;;;;;-144.57;100.00;62443.72;5006546;28;20089;-63
2023/12/03 10:24:56;;;;;;;24.33;11.18;;;;;;;-144.57;100.00;62443.72;5010263;28;20065;-63
2023/12/03 10:27:28;;;;;;;21.95;9.60;;;;;;;-144.57;100.00;62443.72;5008728;28;20046;-62
2023/12/03 10:29:54;;;;;;;25.50;12.43;;;;;;;-144.57;100.00;62443.72;5009696;28;20169;-62
2023/12/03 10:32:20;;;;;;;26.63;12.55;;;;;;;-144.57;100.00;62443.72;5009525;28;20042;-62
2023/12/03 10:34:49;;;;;;;24.13;11.50;;;;;;;-144.57;100.00;62443.72;5008484;28;20045;-64
2023/12/03 10:37:15;;;;;;;24.92;11.95;;;;;;;-144.57;100.00;62443.72;5008299;28;20037;-62
2023/12/03 10:39:41;;;;;;;26.80;11.93;;;;;;;-144.57;100.00;62443.72;5006840;28;20057;-63
2023/12/03 10:42:08;;;;;;;31.90;14.43;;;;;;;-144.57;100.00;62443.72;5008358;28;20099;-61
2023/12/03 10:44:38;;;;;;;26.92;13.00;;;;;;;-144.57;100.00;62443.72;5010930;28;20188;-62
2023/12/03 10:47:04;;;;;;;27.95;13.45;;;;;;;-144.57;100.00;62443.72;5014233;28;20514;-62
2023/12/03 10:49:31;;;;;;;28.88;13.23;;;;;;;-144.57;100.00;62443.72;5014648;28;20133;-61